Bush, Kentucky
Current Conditions -  °F | °C
As of 3:53 AM on Saturday 22 Nov 2014 (Local Time) from KLOZ Reporting Station
Clear Clear  
Wind Chill: 23°   Ceiling: Unl
Heat Index: 29°   Visibility: 10mi
Dew Point: 17°   Wind: 6mph
Humidity: 61%   Direction: 170°S
Pressure: 30.37"   Gusts: NA
Location:  37.09°N, 83.87°W
Report Text: KLOZ 220853Z AUTO 17005KT 10SM CLR M02/M08 A3037 RMK AO2 SLP292 T10171083 58008
Loading
Personal Weather Stations






























Interactive Weather Map New forecast layout! Learn more

10-Day Weather Forecast

Advertisements
Track Severe Weather on mobile